Weather at Mitiaro Island Airport

Public forecast

Using degrees Celsius for public forecast. Weather courtesy of forecast.io.

Current aviation weather report (METAR) for Mitiaro Island Airport

2024/07/21 16:00 (retrieved 31 minutes ago)

NCMR 211600Z AUTO 07008KT //// ////// 23/15 Q1020 RMK DRY AIR 59

Closest aviation forecast (TAF) to Mitiaro Island Airport

Closest forecast is Rarotonga International Airport, 143.7 nm (266.1 km) SW.

2024/07/21 12:00 (retrieved 5 hours ago)

TAF NCRG 211114Z 2112/2212 09010KT 9999 FEW030